sensor_id;sensor_type;location;lat;lon;timestamp;temperature;humidity
22081;DHT22;11207;59.512;18.050;2023-03-05T00:01:24;-1.90;99.90
22081;DHT22;11207;59.512;18.050;2023-03-05T00:03:51;-1.90;99.90
22081;DHT22;11207;59.512;18.050;2023-03-05T00:06:19;-1.90;99.90
22081;DHT22;11207;59.512;18.050;2023-03-05T00:08:44;-1.90;99.90
22081;DHT22;11207;59.512;18.050;2023-03-05T00:11:11;-1.90;99.90
22081;DHT22;11207;59.512;18.050;2023-03-05T00:13:37;-2.00;99.90
22081;DHT22;11207;59.512;18.050;2023-03-05T00:16:05;-2.00;99.90
22081;DHT22;11207;59.512;18.050;2023-03-05T00:18:31;-2.00;99.90
22081;DHT22;11207;59.512;18.050;2023-03-05T00:20:59;-2.00;99.90
22081;DHT22;11207;59.512;18.050;2023-03-05T00:23:26;-2.00;99.90
22081;DHT22;11207;59.512;18.050;2023-03-05T00:25:52;-2.10;99.90
22081;DHT22;11207;59.512;18.050;2023-03-05T00:28:18;-2.10;99.90
22081;DHT22;11207;59.512;18.050;2023-03-05T00:30:44;-2.10;99.90
22081;DHT22;11207;59.512;18.050;2023-03-05T00:33:11;-2.10;99.90
22081;DHT22;11207;59.512;18.050;2023-03-05T00:35:45;-2.10;99.90
22081;DHT22;11207;59.512;18.050;2023-03-05T00:38:11;-2.10;99.90
22081;DHT22;11207;59.512;18.050;2023-03-05T00:40:38;-2.20;99.90
22081;DHT22;11207;59.512;18.050;2023-03-05T00:43:06;-2.20;99.90
22081;DHT22;11207;59.512;18.050;2023-03-05T00:45:32;-2.20;99.90
22081;DHT22;11207;59.512;18.050;2023-03-05T00:47:59;-2.20;99.90
22081;DHT22;11207;59.512;18.050;2023-03-05T00:50:26;-2.20;99.90
22081;DHT22;11207;59.512;18.050;2023-03-05T00:52:52;-2.20;99.90
22081;DHT22;11207;59.512;18.050;2023-03-05T00:55:18;-2.20;99.90
22081;DHT22;11207;59.512;18.050;2023-03-05T00:57:44;-2.30;99.90
22081;DHT22;11207;59.512;18.050;2023-03-05T01:00:11;-2.30;99.90
22081;DHT22;11207;59.512;18.050;2023-03-05T01:02:40;-2.30;99.90
22081;DHT22;11207;59.512;18.050;2023-03-05T01:05:09;-2.30;99.90
22081;DHT22;11207;59.512;18.050;2023-03-05T01:07:35;-2.30;99.90
22081;DHT22;11207;59.512;18.050;2023-03-05T01:10:03;-2.30;99.90
22081;DHT22;11207;59.512;18.050;2023-03-05T01:12:28;-2.30;99.90
22081;DHT22;11207;59.512;18.050;2023-03-05T01:14:54;-2.40;99.90
22081;DHT22;11207;59.512;18.050;2023-03-05T01:17:20;-2.40;99.90
22081;DHT22;11207;59.512;18.050;2023-03-05T01:19:45;-2.40;99.90
22081;DHT22;11207;59.512;18.050;2023-03-05T01:22:12;-2.40;99.90
22081;DHT22;11207;59.512;18.050;2023-03-05T01:24:38;-2.50;99.90
22081;DHT22;11207;59.512;18.050;2023-03-05T01:27:03;-2.50;99.90
22081;DHT22;11207;59.512;18.050;2023-03-05T01:29:29;-2.50;99.90
22081;DHT22;11207;59.512;18.050;2023-03-05T01:31:55;-2.50;99.90
22081;DHT22;11207;59.512;18.050;2023-03-05T01:34:20;-2.50;99.90
22081;DHT22;11207;59.512;18.050;2023-03-05T01:36:48;-2.50;99.90
22081;DHT22;11207;59.512;18.050;2023-03-05T01:39:15;-2.50;99.90
22081;DHT22;11207;59.512;18.050;2023-03-05T01:41:42;-2.50;99.90
22081;DHT22;11207;59.512;18.050;2023-03-05T01:44:24;-2.60;99.90
22081;DHT22;11207;59.512;18.050;2023-03-05T01:46:50;-2.60;99.90
22081;DHT22;11207;59.512;18.050;2023-03-05T01:49:31;-2.60;99.90
22081;DHT22;11207;59.512;18.050;2023-03-05T01:52:10;-2.70;99.90
22081;DHT22;11207;59.512;18.050;2023-03-05T01:54:45;-2.70;99.90
22081;DHT22;11207;59.512;18.050;2023-03-05T01:57:36;-2.80;99.90
22081;DHT22;11207;59.512;18.050;2023-03-05T02:00:15;-2.90;99.90
22081;DHT22;11207;59.512;18.050;2023-03-05T02:02:48;-2.90;99.90
22081;DHT22;11207;59.512;18.050;2023-03-05T02:08:00;-3.00;99.90
22081;DHT22;11207;59.512;18.050;2023-03-05T02:10:31;-3.00;99.90
22081;DHT22;11207;59.512;18.050;2023-03-05T02:13:01;-3.00;99.90
22081;DHT22;11207;59.512;18.050;2023-03-05T02:15:29;-3.00;99.90
22081;DHT22;11207;59.512;18.050;2023-03-05T02:17:57;-3.00;99.90
22081;DHT22;11207;59.512;18.050;2023-03-05T02:20:25;-3.00;99.90
22081;DHT22;11207;59.512;18.050;2023-03-05T02:22:52;-3.00;99.90
22081;DHT22;11207;59.512;18.050;2023-03-05T02:25:26;-3.00;99.90
22081;DHT22;11207;59.512;18.050;2023-03-05T02:30:46;-3.10;99.90
22081;DHT22;11207;59.512;18.050;2023-03-05T02:33:14;-3.10;99.90
22081;DHT22;11207;59.512;18.050;2023-03-05T02:35:40;-3.10;99.90
22081;DHT22;11207;59.512;18.050;2023-03-05T02:38:10;-3.10;99.90
22081;DHT22;11207;59.512;18.050;2023-03-05T02:40:35;-3.10;99.90
22081;DHT22;11207;59.512;18.050;2023-03-05T02:43:01;-3.10;99.90
22081;DHT22;11207;59.512;18.050;2023-03-05T02:45:27;-3.10;99.90
22081;DHT22;11207;59.512;18.050;2023-03-05T02:47:52;-3.20;99.90
22081;DHT22;11207;59.512;18.050;2023-03-05T02:50:19;-3.20;99.90
22081;DHT22;11207;59.512;18.050;2023-03-05T02:52:45;-3.10;99.90
22081;DHT22;11207;59.512;18.050;2023-03-05T02:55:11;-3.10;99.90
22081;DHT22;11207;59.512;18.050;2023-03-05T02:57:37;-3.10;99.90
22081;DHT22;11207;59.512;18.050;2023-03-05T03:00:03;-3.10;99.90
22081;DHT22;11207;59.512;18.050;2023-03-05T03:02:30;-3.10;99.90
22081;DHT22;11207;59.512;18.050;2023-03-05T03:04:56;-3.20;99.90
22081;DHT22;11207;59.512;18.050;2023-03-05T03:07:22;-3.20;99.90
22081;DHT22;11207;59.512;18.050;2023-03-05T03:09:48;-3.20;99.90
22081;DHT22;11207;59.512;18.050;2023-03-05T03:12:14;-3.20;99.90
22081;DHT22;11207;59.512;18.050;2023-03-05T03:14:42;-3.20;99.90
22081;DHT22;11207;59.512;18.050;2023-03-05T03:17:13;-3.20;99.90
22081;DHT22;11207;59.512;18.050;2023-03-05T03:19:41;-3.20;99.90
22081;DHT22;11207;59.512;18.050;2023-03-05T03:22:08;-3.20;99.90
22081;DHT22;11207;59.512;18.050;2023-03-05T03:24:36;-3.20;99.90
22081;DHT22;11207;59.512;18.050;2023-03-05T03:27:02;-3.20;99.90
22081;DHT22;11207;59.512;18.050;2023-03-05T03:29:28;-3.20;99.90
22081;DHT22;11207;59.512;18.050;2023-03-05T03:31:56;-3.20;99.90
22081;DHT22;11207;59.512;18.050;2023-03-05T03:34:22;-3.30;99.90
22081;DHT22;11207;59.512;18.050;2023-03-05T03:36:49;-3.30;99.90
22081;DHT22;11207;59.512;18.050;2023-03-05T03:39:15;-3.30;99.90
22081;DHT22;11207;59.512;18.050;2023-03-05T03:41:49;-3.40;99.90
22081;DHT22;11207;59.512;18.050;2023-03-05T03:44:16;-3.40;99.90
22081;DHT22;11207;59.512;18.050;2023-03-05T03:46:43;-3.50;99.90
22081;DHT22;11207;59.512;18.050;2023-03-05T03:49:15;-3.50;99.90
22081;DHT22;11207;59.512;18.050;2023-03-05T03:51:41;-3.50;99.90
22081;DHT22;11207;59.512;18.050;2023-03-05T03:54:06;-3.50;99.90
22081;DHT22;11207;59.512;18.050;2023-03-05T03:56:33;-3.50;99.90
22081;DHT22;11207;59.512;18.050;2023-03-05T03:58:59;-3.50;99.90
22081;DHT22;11207;59.512;18.050;2023-03-05T04:01:24;-3.50;99.90
22081;DHT22;11207;59.512;18.050;2023-03-05T04:03:50;-3.50;99.90
22081;DHT22;11207;59.512;18.050;2023-03-05T04:06:15;-3.50;99.90
22081;DHT22;11207;59.512;18.050;2023-03-05T04:08:41;-3.50;99.90
22081;DHT22;11207;59.512;18.050;2023-03-05T04:11:07;-3.50;99.90
22081;DHT22;11207;59.512;18.050;2023-03-05T04:13:33;-3.40;99.90
22081;DHT22;11207;59.512;18.050;2023-03-05T04:15:58;-3.40;99.90
22081;DHT22;11207;59.512;18.050;2023-03-05T04:18:24;-3.50;99.90
22081;DHT22;11207;59.512;18.050;2023-03-05T04:20:50;-3.60;99.90
22081;DHT22;11207;59.512;18.050;2023-03-05T04:23:15;-3.60;99.90
22081;DHT22;11207;59.512;18.050;2023-03-05T04:25:41;-3.50;99.90
22081;DHT22;11207;59.512;18.050;2023-03-05T04:28:07;-3.50;99.90
22081;DHT22;11207;59.512;18.050;2023-03-05T04:30:32;-3.60;99.90
22081;DHT22;11207;59.512;18.050;2023-03-05T04:32:58;-3.60;99.90
22081;DHT22;11207;59.512;18.050;2023-03-05T04:35:24;-3.60;99.90
22081;DHT22;11207;59.512;18.050;2023-03-05T04:37:50;-3.70;99.90
22081;DHT22;11207;59.512;18.050;2023-03-05T04:40:16;-3.70;99.90
22081;DHT22;11207;59.512;18.050;2023-03-05T04:42:43;-3.70;99.90
22081;DHT22;11207;59.512;18.050;2023-03-05T04:45:08;-3.70;99.90
22081;DHT22;11207;59.512;18.050;2023-03-05T04:47:35;-3.80;99.90
22081;DHT22;11207;59.512;18.050;2023-03-05T04:50:02;-3.80;99.90
22081;DHT22;11207;59.512;18.050;2023-03-05T04:52:28;-3.60;99.90
22081;DHT22;11207;59.512;18.050;2023-03-05T04:54:54;-3.80;99.90
22081;DHT22;11207;59.512;18.050;2023-03-05T04:57:20;-3.80;99.90
22081;DHT22;11207;59.512;18.050;2023-03-05T04:59:45;-3.80;99.90
22081;DHT22;11207;59.512;18.050;2023-03-05T05:02:11;-3.80;99.90
22081;DHT22;11207;59.512;18.050;2023-03-05T05:04:37;-3.80;99.90
22081;DHT22;11207;59.512;18.050;2023-03-05T05:07:03;-3.80;99.90
22081;DHT22;11207;59.512;18.050;2023-03-05T05:09:29;-3.90;99.90
22081;DHT22;11207;59.512;18.050;2023-03-05T05:11:55;-3.80;99.90
22081;DHT22;11207;59.512;18.050;2023-03-05T05:14:21;-3.80;99.90
22081;DHT22;11207;59.512;18.050;2023-03-05T05:16:46;-3.80;99.90
22081;DHT22;11207;59.512;18.050;2023-03-05T05:19:12;-3.90;99.90
22081;DHT22;11207;59.512;18.050;2023-03-05T05:21:38;-3.90;99.90
22081;DHT22;11207;59.512;18.050;2023-03-05T05:24:04;-3.90;99.90
22081;DHT22;11207;59.512;18.050;2023-03-05T05:26:31;-3.80;99.90
22081;DHT22;11207;59.512;18.050;2023-03-05T05:28:56;-3.80;99.90
22081;DHT22;11207;59.512;18.050;2023-03-05T05:31:22;-3.80;99.90
22081;DHT22;11207;59.512;18.050;2023-03-05T05:33:48;-3.70;99.90
22081;DHT22;11207;59.512;18.050;2023-03-05T05:36:16;-3.70;99.90
22081;DHT22;11207;59.512;18.050;2023-03-05T05:38:43;-3.70;99.90
22081;DHT22;11207;59.512;18.050;2023-03-05T05:41:12;-3.70;99.90
22081;DHT22;11207;59.512;18.050;2023-03-05T05:43:38;-3.70;99.90
22081;DHT22;11207;59.512;18.050;2023-03-05T05:46:11;-3.70;99.90
22081;DHT22;11207;59.512;18.050;2023-03-05T05:48:37;-3.70;99.90
22081;DHT22;11207;59.512;18.050;2023-03-05T05:51:09;-3.70;99.90
22081;DHT22;11207;59.512;18.050;2023-03-05T05:53:35;-3.70;99.90
22081;DHT22;11207;59.512;18.050;2023-03-05T05:56:03;-3.70;99.90
22081;DHT22;11207;59.512;18.050;2023-03-05T05:58:29;-3.70;99.90
22081;DHT22;11207;59.512;18.050;2023-03-05T06:00:55;-3.60;99.90
22081;DHT22;11207;59.512;18.050;2023-03-05T06:03:20;-3.70;99.90
22081;DHT22;11207;59.512;18.050;2023-03-05T06:05:46;-3.60;99.90
22081;DHT22;11207;59.512;18.050;2023-03-05T06:08:12;-3.60;99.90
22081;DHT22;11207;59.512;18.050;2023-03-05T06:10:37;-3.50;99.90
22081;DHT22;11207;59.512;18.050;2023-03-05T06:13:03;-3.50;99.90
22081;DHT22;11207;59.512;18.050;2023-03-05T06:15:29;-3.50;99.90
22081;DHT22;11207;59.512;18.050;2023-03-05T06:17:54;-3.50;99.90
22081;DHT22;11207;59.512;18.050;2023-03-05T06:20:20;-3.50;99.90
22081;DHT22;11207;59.512;18.050;2023-03-05T06:22:46;-3.40;99.90
22081;DHT22;11207;59.512;18.050;2023-03-05T06:25:12;-3.50;99.90
22081;DHT22;11207;59.512;18.050;2023-03-05T06:27:37;-3.60;99.90
22081;DHT22;11207;59.512;18.050;2023-03-05T06:30:05;-3.50;99.90
22081;DHT22;11207;59.512;18.050;2023-03-05T06:32:31;-3.50;99.90
22081;DHT22;11207;59.512;18.050;2023-03-05T06:34:57;-3.50;99.90
22081;DHT22;11207;59.512;18.050;2023-03-05T06:37:22;-3.50;99.90
22081;DHT22;11207;59.512;18.050;2023-03-05T06:39:48;-3.50;99.90
22081;DHT22;11207;59.512;18.050;2023-03-05T06:42:13;-3.50;99.90
22081;DHT22;11207;59.512;18.050;2023-03-05T06:44:43;-3.40;99.90
22081;DHT22;11207;59.512;18.050;2023-03-05T06:47:09;-3.40;99.90
22081;DHT22;11207;59.512;18.050;2023-03-05T06:49:36;-3.40;99.90
22081;DHT22;11207;59.512;18.050;2023-03-05T06:52:02;-3.30;99.90
22081;DHT22;11207;59.512;18.050;2023-03-05T06:54:28;-3.20;99.90
22081;DHT22;11207;59.512;18.050;2023-03-05T06:56:54;-3.10;99.90
22081;DHT22;11207;59.512;18.050;2023-03-05T06:59:20;-3.00;99.90
22081;DHT22;11207;59.512;18.050;2023-03-05T07:01:46;-3.00;99.90
22081;DHT22;11207;59.512;18.050;2023-03-05T07:04:12;-2.90;99.90
22081;DHT22;11207;59.512;18.050;2023-03-05T07:06:40;-2.90;99.90
22081;DHT22;11207;59.512;18.050;2023-03-05T07:09:14;-2.80;99.90
22081;DHT22;11207;59.512;18.050;2023-03-05T07:11:41;-2.80;99.90
22081;DHT22;11207;59.512;18.050;2023-03-05T07:14:06;-2.70;99.90
22081;DHT22;11207;59.512;18.050;2023-03-05T07:16:33;-2.60;99.90
22081;DHT22;11207;59.512;18.050;2023-03-05T07:19:03;-2.60;99.90
22081;DHT22;11207;59.512;18.050;2023-03-05T07:21:33;-2.50;99.90
22081;DHT22;11207;59.512;18.050;2023-03-05T07:24:03;-2.40;99.90
22081;DHT22;11207;59.512;18.050;2023-03-05T07:26:36;-2.30;99.90
22081;DHT22;11207;59.512;18.050;2023-03-05T07:29:04;-2.20;99.90
22081;DHT22;11207;59.512;18.050;2023-03-05T07:31:37;-2.10;99.90
22081;DHT22;11207;59.512;18.050;2023-03-05T07:34:13;-1.90;99.90
22081;DHT22;11207;59.512;18.050;2023-03-05T07:36:52;-1.90;99.90
22081;DHT22;11207;59.512;18.050;2023-03-05T07:39:18;-1.80;99.90
22081;DHT22;11207;59.512;18.050;2023-03-05T07:41:46;-1.50;99.90
22081;DHT22;11207;59.512;18.050;2023-03-05T07:44:14;-1.60;99.90
22081;DHT22;11207;59.512;18.050;2023-03-05T07:46:39;-1.50;99.90
22081;DHT22;11207;59.512;18.050;2023-03-05T07:49:06;-1.50;99.90
22081;DHT22;11207;59.512;18.050;2023-03-05T07:51:32;-1.40;99.90
22081;DHT22;11207;59.512;18.050;2023-03-05T07:53:58;-1.40;99.90
22081;DHT22;11207;59.512;18.050;2023-03-05T07:56:30;-1.40;99.90
22081;DHT22;11207;59.512;18.050;2023-03-05T07:58:57;-1.30;99.90
22081;DHT22;11207;59.512;18.050;2023-03-05T08:01:23;-1.20;99.90
22081;DHT22;11207;59.512;18.050;2023-03-05T08:03:48;-1.00;99.90
22081;DHT22;11207;59.512;18.050;2023-03-05T08:06:14;-1.00;99.90
22081;DHT22;11207;59.512;18.050;2023-03-05T08:08:41;-0.80;99.90
22081;DHT22;11207;59.512;18.050;2023-03-05T08:11:09;-0.60;99.90
22081;DHT22;11207;59.512;18.050;2023-03-05T08:13:36;-0.50;99.90
22081;DHT22;11207;59.512;18.050;2023-03-05T08:16:13;-0.40;99.90
22081;DHT22;11207;59.512;18.050;2023-03-05T08:18:40;-0.30;99.90
22081;DHT22;11207;59.512;18.050;2023-03-05T08:21:06;-0.30;99.90
22081;DHT22;11207;59.512;18.050;2023-03-05T08:23:32;-0.10;99.90
22081;DHT22;11207;59.512;18.050;2023-03-05T08:25:58;-0.20;99.90
22081;DHT22;11207;59.512;18.050;2023-03-05T08:28:24;-0.20;99.90
22081;DHT22;11207;59.512;18.050;2023-03-05T08:30:50;-0.20;99.90
22081;DHT22;11207;59.512;18.050;2023-03-05T08:33:15;-0.20;99.90
22081;DHT22;11207;59.512;18.050;2023-03-05T08:35:44;-0.20;99.90
22081;DHT22;11207;59.512;18.050;2023-03-05T08:38:10;-0.10;99.90
22081;DHT22;11207;59.512;18.050;2023-03-05T08:40:35;-0.10;99.90
22081;DHT22;11207;59.512;18.050;2023-03-05T08:43:04;-0.10;99.90
22081;DHT22;11207;59.512;18.050;2023-03-05T08:45:31;-0.10;99.90
22081;DHT22;11207;59.512;18.050;2023-03-05T08:47:57;0.00;99.90
22081;DHT22;11207;59.512;18.050;2023-03-05T08:50:23;-0.10;99.90
22081;DHT22;11207;59.512;18.050;2023-03-05T08:52:49;-0.10;99.90
22081;DHT22;11207;59.512;18.050;2023-03-05T08:55:15;-0.10;99.90
22081;DHT22;11207;59.512;18.050;2023-03-05T08:57:41;-0.10;99.90
22081;DHT22;11207;59.512;18.050;2023-03-05T09:00:07;-0.10;99.90
22081;DHT22;11207;59.512;18.050;2023-03-05T09:02:35;-0.10;99.90
22081;DHT22;11207;59.512;18.050;2023-03-05T09:05:01;-0.10;99.90
22081;DHT22;11207;59.512;18.050;2023-03-05T09:07:27;-0.10;99.90
22081;DHT22;11207;59.512;18.050;2023-03-05T09:09:53;0.00;99.90
22081;DHT22;11207;59.512;18.050;2023-03-05T09:12:18;0.00;99.90
22081;DHT22;11207;59.512;18.050;2023-03-05T09:14:44;0.10;99.90
22081;DHT22;11207;59.512;18.050;2023-03-05T09:17:11;0.30;99.90
22081;DHT22;11207;59.512;18.050;2023-03-05T09:19:37;0.40;99.90
22081;DHT22;11207;59.512;18.050;2023-03-05T09:22:03;0.40;99.90
22081;DHT22;11207;59.512;18.050;2023-03-05T09:24:28;0.50;99.90
22081;DHT22;11207;59.512;18.050;2023-03-05T09:26:58;0.50;99.90
22081;DHT22;11207;59.512;18.050;2023-03-05T09:29:25;0.50;99.90
22081;DHT22;11207;59.512;18.050;2023-03-05T09:31:51;0.60;99.90
22081;DHT22;11207;59.512;18.050;2023-03-05T09:34:17;0.60;99.90
22081;DHT22;11207;59.512;18.050;2023-03-05T09:36:43;0.80;99.90
22081;DHT22;11207;59.512;18.050;2023-03-05T09:39:09;0.80;99.90
22081;DHT22;11207;59.512;18.050;2023-03-05T09:44:37;0.90;99.90
22081;DHT22;11207;59.512;18.050;2023-03-05T09:52:49;1.00;99.90
22081;DHT22;11207;59.512;18.050;2023-03-05T09:55:34;1.00;99.90
22081;DHT22;11207;59.512;18.050;2023-03-05T09:58:12;1.10;99.90
22081;DHT22;11207;59.512;18.050;2023-03-05T10:00:44;1.10;99.90
22081;DHT22;11207;59.512;18.050;2023-03-05T10:06:33;1.20;99.90
22081;DHT22;11207;59.512;18.050;2023-03-05T10:14:02;1.30;99.90
22081;DHT22;11207;59.512;18.050;2023-03-05T10:22:22;1.50;99.90
22081;DHT22;11207;59.512;18.050;2023-03-05T10:26:01;1.60;99.90
22081;DHT22;11207;59.512;18.050;2023-03-05T10:28:08;1.60;99.90
22081;DHT22;11207;59.512;18.050;2023-03-05T10:30:43;1.60;99.90
22081;DHT22;11207;59.512;18.050;2023-03-05T10:35:56;1.70;99.90
22081;DHT22;11207;59.512;18.050;2023-03-05T10:41:28;1.90;99.90
22081;DHT22;11207;59.512;18.050;2023-03-05T10:44:05;1.80;99.90
22081;DHT22;11207;59.512;18.050;2023-03-05T10:46:36;1.90;99.90
22081;DHT22;11207;59.512;18.050;2023-03-05T10:52:05;2.00;99.90
22081;DHT22;11207;59.512;18.050;2023-03-05T10:54:34;2.00;99.90
22081;DHT22;11207;59.512;18.050;2023-03-05T10:57:19;2.10;99.90
22081;DHT22;11207;59.512;18.050;2023-03-05T10:59:48;2.10;99.90
22081;DHT22;11207;59.512;18.050;2023-03-05T11:02:16;2.10;99.90
22081;DHT22;11207;59.512;18.050;2023-03-05T11:04:42;2.10;99.90
22081;DHT22;11207;59.512;18.050;2023-03-05T11:09:41;2.30;99.90
22081;DHT22;11207;59.512;18.050;2023-03-05T11:12:13;2.30;99.90
22081;DHT22;11207;59.512;18.050;2023-03-05T11:14:42;2.40;99.90
22081;DHT22;11207;59.512;18.050;2023-03-05T11:17:29;2.40;99.90
22081;DHT22;11207;59.512;18.050;2023-03-05T11:19:56;2.50;99.90
22081;DHT22;11207;59.512;18.050;2023-03-05T11:22:23;2.50;99.90
22081;DHT22;11207;59.512;18.050;2023-03-05T11:25:14;2.50;99.90
22081;DHT22;11207;59.512;18.050;2023-03-05T11:27:56;2.50;99.90
22081;DHT22;11207;59.512;18.050;2023-03-05T11:30:31;2.60;99.90
22081;DHT22;11207;59.512;18.050;2023-03-05T11:33:18;2.80;99.90
22081;DHT22;11207;59.512;18.050;2023-03-05T11:35:45;3.00;99.90
22081;DHT22;11207;59.512;18.050;2023-03-05T11:38:45;3.00;99.90
22081;DHT22;11207;59.512;18.050;2023-03-05T11:41:11;3.00;99.90
22081;DHT22;11207;59.512;18.050;2023-03-05T11:43:38;2.90;99.90
22081;DHT22;11207;59.512;18.050;2023-03-05T11:46:09;2.90;99.90
22081;DHT22;11207;59.512;18.050;2023-03-05T11:48:37;2.90;99.90
22081;DHT22;11207;59.512;18.050;2023-03-05T11:51:21;3.10;99.90
22081;DHT22;11207;59.512;18.050;2023-03-05T11:53:54;3.20;99.90
22081;DHT22;11207;59.512;18.050;2023-03-05T11:56:29;3.20;99.90
22081;DHT22;11207;59.512;18.050;2023-03-05T11:59:06;3.10;99.90
22081;DHT22;11207;59.512;18.050;2023-03-05T12:01:45;3.10;99.90
22081;DHT22;11207;59.512;18.050;2023-03-05T12:04:11;3.00;99.90
22081;DHT22;11207;59.512;18.050;2023-03-05T12:06:56;3.10;99.90
22081;DHT22;11207;59.512;18.050;2023-03-05T12:09:42;3.00;99.90
22081;DHT22;11207;59.512;18.050;2023-03-05T12:12:40;2.90;99.90
22081;DHT22;11207;59.512;18.050;2023-03-05T12:17:48;2.60;99.90
22081;DHT22;11207;59.512;18.050;2023-03-05T12:22:48;2.40;99.90
22081;DHT22;11207;59.512;18.050;2023-03-05T12:28:13;2.40;99.90
22081;DHT22;11207;59.512;18.050;2023-03-05T12:30:53;2.00;99.90
22081;DHT22;11207;59.512;18.050;2023-03-05T12:33:41;1.80;99.90
22081;DHT22;11207;59.512;18.050;2023-03-05T12:38:43;1.60;99.90
22081;DHT22;11207;59.512;18.050;2023-03-05T12:46:35;1.50;99.90
22081;DHT22;11207;59.512;18.050;2023-03-05T12:51:43;1.50;99.90
22081;DHT22;11207;59.512;18.050;2023-03-05T12:54:36;1.40;99.90
22081;DHT22;11207;59.512;18.050;2023-03-05T12:57:18;1.60;99.90
22081;DHT22;11207;59.512;18.050;2023-03-05T13:02:30;1.60;99.90
22081;DHT22;11207;59.512;18.050;2023-03-05T13:04:59;1.70;99.90
22081;DHT22;11207;59.512;18.050;2023-03-05T13:07:25;1.60;99.90
22081;DHT22;11207;59.512;18.050;2023-03-05T13:09:56;1.60;99.90
22081;DHT22;11207;59.512;18.050;2023-03-05T13:12:23;1.60;99.90
22081;DHT22;11207;59.512;18.050;2023-03-05T13:15:16;1.50;99.90
22081;DHT22;11207;59.512;18.050;2023-03-05T13:20:38;1.60;99.90
22081;DHT22;11207;59.512;18.050;2023-03-05T13:23:23;1.60;99.90
22081;DHT22;11207;59.512;18.050;2023-03-05T13:26:14;1.60;99.90
22081;DHT22;11207;59.512;18.050;2023-03-05T13:29:02;1.70;99.90
22081;DHT22;11207;59.512;18.050;2023-03-05T13:31:29;1.60;99.90
22081;DHT22;11207;59.512;18.050;2023-03-05T13:34:06;1.60;99.90
22081;DHT22;11207;59.512;18.050;2023-03-05T13:36:32;1.80;99.90
22081;DHT22;11207;59.512;18.050;2023-03-05T13:38:58;1.80;99.90
22081;DHT22;11207;59.512;18.050;2023-03-05T13:41:28;1.70;99.90
22081;DHT22;11207;59.512;18.050;2023-03-05T13:43:56;1.80;99.90
22081;DHT22;11207;59.512;18.050;2023-03-05T13:46:34;1.70;99.90
22081;DHT22;11207;59.512;18.050;2023-03-05T13:49:20;1.60;99.90
22081;DHT22;11207;59.512;18.050;2023-03-05T13:51:51;1.70;99.90
22081;DHT22;11207;59.512;18.050;2023-03-05T13:54:18;1.60;99.90
22081;DHT22;11207;59.512;18.050;2023-03-05T13:56:59;1.60;99.90
22081;DHT22;11207;59.512;18.050;2023-03-05T13:59:28;1.70;99.90
22081;DHT22;11207;59.512;18.050;2023-03-05T14:01:57;1.60;99.90
22081;DHT22;11207;59.512;18.050;2023-03-05T14:04:27;1.50;99.90
22081;DHT22;11207;59.512;18.050;2023-03-05T14:07:02;1.60;99.90
22081;DHT22;11207;59.512;18.050;2023-03-05T14:09:41;1.40;99.90
22081;DHT22;11207;59.512;18.050;2023-03-05T14:14:54;1.30;99.90
22081;DHT22;11207;59.512;18.050;2023-03-05T14:22:46;1.20;99.90
22081;DHT22;11207;59.512;18.050;2023-03-05T14:25:33;1.20;99.90
22081;DHT22;11207;59.512;18.050;2023-03-05T14:28:02;1.10;99.90
22081;DHT22;11207;59.512;18.050;2023-03-05T14:30:28;1.10;99.90
22081;DHT22;11207;59.512;18.050;2023-03-05T14:32:56;1.10;99.90
22081;DHT22;11207;59.512;18.050;2023-03-05T14:35:25;1.00;99.90
22081;DHT22;11207;59.512;18.050;2023-03-05T14:37:53;1.00;99.90
22081;DHT22;11207;59.512;18.050;2023-03-05T14:42:59;1.00;99.90
22081;DHT22;11207;59.512;18.050;2023-03-05T14:45:40;1.00;99.90
22081;DHT22;11207;59.512;18.050;2023-03-05T14:48:22;0.90;99.90
22081;DHT22;11207;59.512;18.050;2023-03-05T14:50:50;1.00;99.90
22081;DHT22;11207;59.512;18.050;2023-03-05T14:53:25;1.00;99.90
22081;DHT22;11207;59.512;18.050;2023-03-05T14:55:54;1.00;99.90
22081;DHT22;11207;59.512;18.050;2023-03-05T14:58:23;1.00;99.90
22081;DHT22;11207;59.512;18.050;2023-03-05T15:00:51;1.00;99.90
22081;DHT22;11207;59.512;18.050;2023-03-05T15:03:19;1.00;99.90
22081;DHT22;11207;59.512;18.050;2023-03-05T15:05:47;1.00;99.90
22081;DHT22;11207;59.512;18.050;2023-03-05T15:08:19;1.00;99.90
22081;DHT22;11207;59.512;18.050;2023-03-05T15:10:46;1.00;99.90
22081;DHT22;11207;59.512;18.050;2023-03-05T15:13:13;1.00;99.90
22081;DHT22;11207;59.512;18.050;2023-03-05T15:15:40;1.00;99.90
22081;DHT22;11207;59.512;18.050;2023-03-05T15:18:08;1.00;99.90
22081;DHT22;11207;59.512;18.050;2023-03-05T15:20:34;1.20;99.90
22081;DHT22;11207;59.512;18.050;2023-03-05T15:23:03;1.10;99.90
22081;DHT22;11207;59.512;18.050;2023-03-05T15:25:29;1.10;99.90
22081;DHT22;11207;59.512;18.050;2023-03-05T15:27:54;1.10;99.90
22081;DHT22;11207;59.512;18.050;2023-03-05T15:30:30;1.00;99.90
22081;DHT22;11207;59.512;18.050;2023-03-05T15:32:57;1.00;99.90
22081;DHT22;11207;59.512;18.050;2023-03-05T15:35:25;1.00;99.90
22081;DHT22;11207;59.512;18.050;2023-03-05T15:37:51;1.00;99.90
22081;DHT22;11207;59.512;18.050;2023-03-05T15:40:19;1.00;99.90
22081;DHT22;11207;59.512;18.050;2023-03-05T15:42:45;1.10;99.90
22081;DHT22;11207;59.512;18.050;2023-03-05T15:45:12;1.10;99.90
22081;DHT22;11207;59.512;18.050;2023-03-05T15:47:37;1.00;99.90
22081;DHT22;11207;59.512;18.050;2023-03-05T15:50:05;1.00;99.90
22081;DHT22;11207;59.512;18.050;2023-03-05T15:52:31;0.90;99.90
22081;DHT22;11207;59.512;18.050;2023-03-05T15:54:59;0.90;99.90
22081;DHT22;11207;59.512;18.050;2023-03-05T15:57:25;0.80;99.90
22081;DHT22;11207;59.512;18.050;2023-03-05T15:59:50;0.90;99.90
22081;DHT22;11207;59.512;18.050;2023-03-05T16:02:17;0.90;99.90
22081;DHT22;11207;59.512;18.050;2023-03-05T16:04:43;0.80;99.90
22081;DHT22;11207;59.512;18.050;2023-03-05T16:07:09;0.80;99.90
22081;DHT22;11207;59.512;18.050;2023-03-05T16:09:39;0.80;99.90
22081;DHT22;11207;59.512;18.050;2023-03-05T16:12:09;0.80;99.90
22081;DHT22;11207;59.512;18.050;2023-03-05T16:14:37;0.70;99.90
22081;DHT22;11207;59.512;18.050;2023-03-05T16:17:04;0.70;99.90
22081;DHT22;11207;59.512;18.050;2023-03-05T16:19:31;0.70;99.90
22081;DHT22;11207;59.512;18.050;2023-03-05T16:21:59;0.80;99.90
22081;DHT22;11207;59.512;18.050;2023-03-05T16:24:26;0.60;99.90
22081;DHT22;11207;59.512;18.050;2023-03-05T16:26:51;0.60;99.90
22081;DHT22;11207;59.512;18.050;2023-03-05T16:29:17;0.60;99.90
22081;DHT22;11207;59.512;18.050;2023-03-05T16:31:43;0.50;99.90
22081;DHT22;11207;59.512;18.050;2023-03-05T16:34:10;0.50;99.90
22081;DHT22;11207;59.512;18.050;2023-03-05T16:36:39;0.30;99.90
22081;DHT22;11207;59.512;18.050;2023-03-05T16:39:05;0.30;99.90
22081;DHT22;11207;59.512;18.050;2023-03-05T16:41:32;0.30;99.90
22081;DHT22;11207;59.512;18.050;2023-03-05T16:43:58;0.10;99.90
22081;DHT22;11207;59.512;18.050;2023-03-05T16:46:26;0.00;99.90
22081;DHT22;11207;59.512;18.050;2023-03-05T16:48:52;0.00;99.90